createdAt,value
2023-03-06T00:01:20.445Z,-3.35
2023-03-06T00:06:23.133Z,-3.36
2023-03-06T00:11:25.745Z,-3.41
2023-03-06T00:16:29.038Z,-3.49
2023-03-06T00:21:31.692Z,-3.58
2023-03-06T00:26:35.962Z,-3.66
2023-03-06T00:31:38.600Z,-3.76
2023-03-06T00:36:41.935Z,-3.82
2023-03-06T00:41:46.917Z,-3.84
2023-03-06T00:46:49.955Z,-3.85
2023-03-06T00:51:52.796Z,-3.84
2023-03-06T00:56:55.406Z,-3.83
2023-03-06T01:01:58.321Z,-3.79
2023-03-06T01:07:01.086Z,-3.80
2023-03-06T01:12:03.952Z,-3.84
2023-03-06T01:17:07.626Z,-3.88
2023-03-06T01:22:10.174Z,-3.94
2023-03-06T01:27:12.757Z,-3.99
2023-03-06T01:32:15.365Z,-4.04
2023-03-06T01:37:18.043Z,-4.09
2023-03-06T01:42:20.827Z,-4.12
2023-03-06T01:47:23.418Z,-4.13
2023-03-06T01:52:30.671Z,-4.13
2023-03-06T01:57:38.151Z,-4.12
2023-03-06T02:02:43.822Z,-4.15
2023-03-06T02:07:47.417Z,-4.18
2023-03-06T02:12:51.609Z,-4.24
2023-03-06T02:17:54.620Z,-4.28
2023-03-06T02:23:24.709Z,-4.27
2023-03-06T02:28:27.583Z,-4.25
2023-03-06T02:33:30.191Z,-4.22
2023-03-06T02:38:50.016Z,-4.20
2023-03-06T02:43:53.369Z,-4.20
2023-03-06T02:48:55.912Z,-4.21
2023-03-06T02:53:58.651Z,-4.26
2023-03-06T02:59:01.236Z,-4.33
2023-03-06T03:04:03.889Z,-4.41
2023-03-06T03:09:07.404Z,-4.47
2023-03-06T03:14:09.968Z,-4.51
2023-03-06T03:19:12.795Z,-4.53
2023-03-06T03:24:16.663Z,-4.54
2023-03-06T03:29:19.992Z,-4.54
2023-03-06T03:34:22.805Z,-4.57
2023-03-06T03:39:25.423Z,-4.61
2023-03-06T03:44:27.967Z,-4.65
2023-03-06T03:49:30.712Z,-4.70
2023-03-06T03:54:33.854Z,-4.71
2023-03-06T03:59:36.468Z,-4.74
2023-03-06T04:04:39.078Z,-4.75
2023-03-06T04:09:41.838Z,-4.75
2023-03-06T04:14:44.471Z,-4.76
2023-03-06T04:19:47.033Z,-4.77
2023-03-06T04:24:50.141Z,-4.80
2023-03-06T04:29:56.138Z,-4.81
2023-03-06T04:34:58.709Z,-4.82
2023-03-06T04:40:01.274Z,-4.83
2023-03-06T04:45:04.670Z,-4.83
2023-03-06T04:50:08.402Z,-4.82
2023-03-06T04:55:13.486Z,-4.83
2023-03-06T05:00:19.515Z,-4.83
2023-03-06T05:05:22.191Z,-4.86
2023-03-06T05:10:24.911Z,-4.89
2023-03-06T05:15:28.618Z,-4.92
2023-03-06T05:20:31.180Z,-4.91
2023-03-06T05:25:33.791Z,-4.92
2023-03-06T05:30:36.767Z,-4.92
2023-03-06T05:35:39.472Z,-4.94
2023-03-06T05:40:44.141Z,-4.92
2023-03-06T05:45:46.956Z,-4.87
2023-03-06T05:50:55.994Z,-4.81
2023-03-06T05:56:07.124Z,-4.71
2023-03-06T06:01:13.259Z,-4.58
2023-03-06T06:06:15.922Z,-4.44
2023-03-06T06:11:20.860Z,-4.32
2023-03-06T06:16:23.444Z,-4.24
2023-03-06T06:21:26.047Z,-4.19
2023-03-06T06:26:28.587Z,-4.10
2023-03-06T06:31:31.470Z,-3.95
2023-03-06T06:36:34.551Z,-3.74
2023-03-06T06:42:09.618Z,-3.50
2023-03-06T06:52:26.433Z,-2.94
2023-03-06T06:57:29.196Z,-2.61
2023-03-06T07:02:32.333Z,-2.28
2023-03-06T07:07:37.473Z,-1.96
2023-03-06T07:12:40.299Z,-1.58
2023-03-06T07:17:44.031Z,-1.19
2023-03-06T07:22:51.377Z,-0.66
2023-03-06T07:27:54.843Z,-0.16
2023-03-06T07:33:02.875Z,0.24
2023-03-06T07:38:05.410Z,0.70
2023-03-06T07:43:18.741Z,1.04
2023-03-06T07:48:21.915Z,1.34
2023-03-06T07:53:25.812Z,1.84
2023-03-06T07:58:28.477Z,2.25
2023-03-06T08:03:31.211Z,2.52
2023-03-06T08:08:35.690Z,2.59
2023-03-06T08:13:39.522Z,2.60
2023-03-06T08:18:43.741Z,2.74
2023-03-06T08:23:48.454Z,2.95
2023-03-06T08:28:52.982Z,3.20
2023-03-06T08:33:58.025Z,3.20
2023-03-06T08:39:01.552Z,3.17
2023-03-06T08:44:04.919Z,3.22
2023-03-06T08:49:07.585Z,3.29
2023-03-06T08:54:12.803Z,3.21
2023-03-06T08:59:15.407Z,3.23
2023-03-06T09:04:17.970Z,3.23
2023-03-06T09:09:20.552Z,3.35
2023-03-06T09:14:23.213Z,3.52
2023-03-06T09:19:25.895Z,3.69
2023-03-06T09:24:28.603Z,3.83
2023-03-06T09:29:31.167Z,3.83
2023-03-06T09:38:34.201Z,3.75
2023-03-06T09:43:39.704Z,3.70
2023-03-06T09:48:52.791Z,3.83
2023-03-06T09:54:15.663Z,4.11
2023-03-06T09:59:24.969Z,4.34
2023-03-06T10:04:40.303Z,4.27
2023-03-06T10:10:03.926Z,4.01
2023-03-06T10:15:28.815Z,4.07
2023-03-06T10:20:54.161Z,4.22
2023-03-06T10:26:13.444Z,4.17
2023-03-06T10:31:23.724Z,4.09
2023-03-06T10:36:28.651Z,4.13
2023-03-06T10:41:35.153Z,4.18
2023-03-06T10:46:44.101Z,4.14
2023-03-06T10:52:18.592Z,4.18
2023-03-06T10:57:29.324Z,4.25
2023-03-06T11:02:38.372Z,4.25
2023-03-06T11:07:55.442Z,4.32
2023-03-06T11:13:07.602Z,4.46
2023-03-06T11:18:10.133Z,4.55
2023-03-06T11:23:32.001Z,4.66
2023-03-06T11:28:40.735Z,4.61
2023-03-06T11:34:19.699Z,4.45
2023-03-06T11:39:36.915Z,4.27
2023-03-06T11:44:53.915Z,4.21
2023-03-06T11:50:35.688Z,4.13
2023-03-06T11:55:46.950Z,4.02
2023-03-06T12:01:08.562Z,4.11
2023-03-06T12:06:38.051Z,4.25
2023-03-06T12:11:50.591Z,4.39
2023-03-06T12:17:06.739Z,4.54
2023-03-06T12:22:57.847Z,4.59
2023-03-06T12:28:37.032Z,4.71
2023-03-06T12:33:53.226Z,4.59
2023-03-06T12:39:07.114Z,4.41
2023-03-06T12:44:26.534Z,4.53
2023-03-06T12:49:33.307Z,4.83
2023-03-06T12:54:39.719Z,5.14
2023-03-06T12:59:47.188Z,5.28
2023-03-06T13:05:09.454Z,5.20
2023-03-06T13:10:27.990Z,5.00
2023-03-06T13:15:41.506Z,4.84
2023-03-06T13:20:46.083Z,4.88
2023-03-06T13:25:50.118Z,4.91
2023-03-06T13:30:54.172Z,4.73
2023-03-06T13:35:58.798Z,4.55
2023-03-06T13:41:20.579Z,4.34
2023-03-06T13:46:35.464Z,4.21
2023-03-06T13:51:54.302Z,4.23
2023-03-06T13:57:15.762Z,4.21
2023-03-06T14:02:37.176Z,4.01
2023-03-06T14:07:43.995Z,3.69
2023-03-06T14:12:49.511Z,3.38
2023-03-06T14:18:24.020Z,3.24
2023-03-06T14:23:42.195Z,3.19
2023-03-06T14:28:55.002Z,3.17
2023-03-06T14:34:06.700Z,3.13
2023-03-06T14:39:37.181Z,3.07
2023-03-06T14:44:39.797Z,3.10
2023-03-06T14:49:42.426Z,3.14
2023-03-06T14:54:46.028Z,3.11
2023-03-06T14:59:55.698Z,3.01
2023-03-06T15:05:25.463Z,2.89
2023-03-06T15:10:31.137Z,2.74
2023-03-06T15:15:33.927Z,2.60
2023-03-06T15:20:42.612Z,2.43
2023-03-06T15:25:53.092Z,2.21
2023-03-06T15:31:24.378Z,2.00
2023-03-06T15:36:33.460Z,1.82
2023-03-06T15:41:38.420Z,1.63
2023-03-06T15:46:42.196Z,1.47
2023-03-06T15:51:46.294Z,1.30
2023-03-06T15:56:50.420Z,1.14
2023-03-06T16:01:55.020Z,0.99
2023-03-06T16:06:57.639Z,0.88
2023-03-06T16:12:00.294Z,0.69
2023-03-06T16:17:03.026Z,0.57
2023-03-06T16:22:07.426Z,0.50
2023-03-06T16:27:18.934Z,0.40
2023-03-06T16:32:21.624Z,0.30
2023-03-06T16:37:25.546Z,0.18
2023-03-06T16:42:28.153Z,0.05
2023-03-06T16:47:30.894Z,-0.06
2023-03-06T16:52:33.521Z,-0.17
2023-03-06T16:57:36.208Z,-0.28
2023-03-06T17:02:40.112Z,-0.38
2023-03-06T17:07:42.961Z,-0.48
2023-03-06T17:12:47.977Z,-0.56
2023-03-06T17:17:52.311Z,-0.63
2023-03-06T17:22:55.163Z,-0.71
2023-03-06T17:28:00.589Z,-0.78
2023-03-06T17:33:03.487Z,-0.86
2023-03-06T17:38:06.211Z,-0.93
2023-03-06T17:43:09.226Z,-0.98
2023-03-06T17:48:12.697Z,-1.01
2023-03-06T17:53:15.389Z,-1.04
2023-03-06T17:58:18.148Z,-1.08
2023-03-06T18:03:21.077Z,-1.10
2023-03-06T18:08:23.829Z,-1.12
2023-03-06T18:13:30.731Z,-1.15
2023-03-06T18:18:34.019Z,-1.17
2023-03-06T18:23:38.292Z,-1.14
2023-03-06T18:28:44.458Z,-1.06
2023-03-06T18:33:52.131Z,-1.00
2023-03-06T18:38:55.777Z,-0.97
2023-03-06T18:44:01.159Z,-0.99
2023-03-06T18:49:05.524Z,-1.01
2023-03-06T18:54:09.720Z,-1.03
2023-03-06T18:59:18.220Z,-1.09
2023-03-06T19:04:21.543Z,-1.17
2023-03-06T19:09:24.845Z,-1.26
2023-03-06T19:14:28.650Z,-1.36
2023-03-06T19:19:31.253Z,-1.47
2023-03-06T19:24:34.206Z,-1.58
2023-03-06T19:29:38.507Z,-1.68
2023-03-06T19:34:41.176Z,-1.79
2023-03-06T19:39:44.484Z,-1.86
2023-03-06T19:44:47.075Z,-1.89
2023-03-06T19:49:49.683Z,-1.91
2023-03-06T19:54:52.989Z,-1.94
2023-03-06T19:59:58.408Z,-1.97
2023-03-06T20:05:01.216Z,-1.99
2023-03-06T20:10:04.621Z,-2.01
2023-03-06T20:15:08.373Z,-2.04
2023-03-06T20:20:11.623Z,-2.08
2023-03-06T20:25:14.238Z,-2.12
2023-03-06T20:30:17.241Z,-2.15
2023-03-06T20:35:19.834Z,-2.17
2023-03-06T20:40:22.526Z,-2.18
2023-03-06T20:45:25.198Z,-2.17
2023-03-06T20:50:27.883Z,-2.15
2023-03-06T20:55:30.443Z,-2.13
2023-03-06T21:00:33.323Z,-2.09
2023-03-06T21:05:36.055Z,-2.06
2023-03-06T21:10:38.767Z,-2.08
2023-03-06T21:15:43.018Z,-2.16
2023-03-06T21:20:45.615Z,-2.24
2023-03-06T21:25:52.837Z,-2.31
2023-03-06T21:30:55.632Z,-2.39
2023-03-06T21:35:58.461Z,-2.46
2023-03-06T21:41:24.962Z,-2.52
2023-03-06T21:46:28.493Z,-2.56
2023-03-06T21:51:31.091Z,-2.57
2023-03-06T21:56:33.808Z,-2.57
2023-03-06T22:01:36.826Z,-2.59
2023-03-06T22:06:42.750Z,-2.60
2023-03-06T22:11:45.409Z,-2.66
2023-03-06T22:16:47.985Z,-2.74
2023-03-06T22:21:50.600Z,-2.83
2023-03-06T22:26:53.127Z,-2.91
2023-03-06T22:31:55.812Z,-2.99
2023-03-06T22:36:58.532Z,-3.05
2023-03-06T22:42:01.177Z,-3.08
2023-03-06T22:47:03.804Z,-3.09
2023-03-06T22:52:06.823Z,-3.06
2023-03-06T22:57:09.369Z,-3.05
2023-03-06T23:02:11.924Z,-3.08
2023-03-06T23:07:14.552Z,-3.11
2023-03-06T23:12:17.117Z,-3.15
2023-03-06T23:17:19.901Z,-3.20
2023-03-06T23:22:22.621Z,-3.24
2023-03-06T23:27:25.236Z,-3.27
2023-03-06T23:32:28.194Z,-3.30
2023-03-06T23:37:30.908Z,-3.30
2023-03-06T23:42:33.556Z,-3.29
2023-03-06T23:47:36.091Z,-3.30
2023-03-06T23:52:38.851Z,-3.30
2023-03-06T23:57:41.419Z,-3.36
